| time (UTC) | temp C | wind direction | speed KPH | gust KPH | rain 1hr cm | rain 24hr cm | rain mn cm | humidity % | barometer mb |
| 20260506175955 | 26 | 191 | 16.1 | 32.2 | 0.00 | 0.00 | 0.00 | 69 | 1014.8 |
| 20260506174454 | 25 | 208 | 14.5 | 37.0 | 0.00 | 0.00 | 0.00 | 70 | 1015.0 |
| 20260506171455 | 24 | 198 | 14.5 | 25.7 | 0.00 | 0.00 | 0.00 | 75 | 1015.4 |
| 20260506164454 | 23 | 196 | 16.1 | 32.2 | 0.00 | 0.00 | 0.00 | 74 | 1015.9 |
| 20260506162955 | 23 | 261 | 16.1 | 35.4 | 0.00 | 0.00 | 0.00 | 73 | 1016.3 |
| 20260506161455 | 23 | 217 | 17.7 | 33.8 | 0.00 | 0.00 | 0.00 | 72 | 1016.6 |
| 20260506155957 | 24 | 229 | 16.1 | 30.6 | 0.00 | 0.00 | 0.00 | 72 | 1016.3 |
| 20260506154456 | 24 | 220 | 19.3 | 33.8 | 0.00 | 0.00 | 0.00 | 70 | 1016.7 |
| 20260506151457 | 24 | 222 | 17.7 | 32.2 | 0.00 | 0.00 | 0.00 | 70 | 1016.6 |
| 20260506145957 | 23 | 212 | 17.7 | 33.8 | 0.00 | 0.00 | 0.00 | 71 | 1016.6 |
| 20260506144457 | 23 | 206 | 16.1 | 32.2 | 0.00 | 0.00 | 0.00 | 70 | 1016.4 |
| 20260506142957 | 23 | 193 | 16.1 | 29.0 | 0.00 | 0.00 | 0.00 | 70 | 1016.6 |
| 20260506135957 | 22 | 188 | 9.7 | 19.3 | 0.00 | 0.00 | 0.00 | 75 | 1016.8 |
| 20260506131457 | 22 | 170 | 16.1 | 32.2 | 0.00 | 0.00 | 0.00 | 74 | 1016.8 |
| 20260506125957 | 22 | 200 | 14.5 | 32.2 | 0.00 | 0.00 | 0.00 | 75 | 1016.7 |
| 20260506124457 | 21 | 186 | 12.9 | 27.4 | 0.00 | 0.00 | 0.00 | 75 | 1017.0 |
| 20260506122957 | 21 | 174 | 12.9 | 27.4 | 0.00 | 0.00 | 0.00 | 77 | 1017.0 |
| 20260506121457 | 20 | 210 | 11.3 | 25.7 | 0.00 | 0.00 | 0.00 | 79 | 1016.8 |
| 20260506115957 | 20 | 198 | 12.9 | 25.7 | 0.00 | 0.00 | 0.00 | 80 | 1016.9 |
| 20260506114456 | 20 | 198 | 11.3 | 24.1 | 0.00 | 0.00 | 0.00 | 81 | 1017.0 |
| 20260506112957 | 19 | 200 | 9.7 | 19.3 | 0.00 | 0.00 | 0.00 | 83 | 1016.9 |
| 20260506104456 | 18 | 183 | 8.0 | 22.5 | 0.00 | 0.00 | 0.00 | 85 | 1016.8 |
| 20260506101456 | 18 | 192 | 9.7 | 17.7 | 0.00 | 0.00 | 0.00 | 84 | 1016.6 |
| 20260506091456 | 18 | 225 | 8.0 | 16.1 | 0.00 | 0.00 | 0.00 | 84 | 1017.0 |
| 20260506085957 | 18 | 186 | 8.0 | 16.1 | 0.00 | 0.00 | 0.00 | 84 | 1017.0 |
| 20260506084457 | 18 | 253 | 9.7 | 24.1 | 0.00 | 0.00 | 0.00 | 84 | 1016.9 |
| 20260506082957 | 18 | 186 | 9.7 | 20.9 | 0.00 | 0.00 | 0.00 | 84 | 1016.8 |
| 20260506081456 | 18 | 201 | 8.0 | 16.1 | 0.00 | 0.00 | 0.00 | 84 | 1016.8 |
| 20260506072957 | 18 | 210 | 9.7 | 17.7 | 0.00 | 0.00 | 0.00 | 83 | 1017.1 |
| 20260506071456 | 18 | 194 | 8.0 | 17.7 | 0.00 | 0.00 | 0.00 | 84 | 1017.0 |
| 20260506061456 | 18 | 213 | 9.7 | 19.3 | 0.00 | 0.00 | 0.00 | 84 | 1017.6 |
| 20260506044456 | 18 | 223 | 11.3 | 27.4 | 0.00 | 0.00 | 0.00 | 85 | 1017.8 |
| 20260506042956 | 18 | 200 | 11.3 | 25.7 | 0.00 | 0.00 | 0.00 | 85 | 1018.0 |
| 20260506041456 | 18 | 167 | 9.7 | 20.9 | 0.00 | 0.00 | 0.00 | 85 | 1018.1 |
| 20260506035956 | 18 | 221 | 9.7 | 19.3 | 0.00 | 0.00 | 0.00 | 84 | 1018.1 |
| 20260506032955 | 18 | 184 | 11.3 | 30.6 | 0.00 | 0.00 | 0.00 | 83 | 1018.1 |
| 20260506031455 | 19 | 263 | 12.9 | 24.1 | 0.00 | 0.00 | 0.00 | 82 | 1018.2 |
| 20260506024455 | 19 | 178 | 12.9 | 24.1 | 0.00 | 0.00 | 0.00 | 82 | 1018.0 |
| 20260506022955 | 19 | 148 | 11.3 | 22.5 | 0.00 | 0.00 | 0.00 | 82 | 1018.0 |
| 20260506021455 | 19 | 183 | 12.9 | 27.4 | 0.00 | 0.00 | 0.00 | 81 | 1018.5 |
| 20260506015955 | 19 | 213 | 14.5 | 25.7 | 0.00 | 0.00 | 0.00 | 81 | 1018.5 |
| 20260506014455 | 19 | 241 | 14.5 | 27.4 | 0.00 | 0.00 | 0.00 | 82 | 1018.5 |
| 20260506012955 | 19 | 218 | 14.5 | 25.7 | 0.00 | 0.00 | 0.00 | 82 | 1018.4 |
| 20260506005955 | 19 | 196 | 12.9 | 27.4 | 0.00 | 0.00 | 0.00 | 83 | 1018.1 |
| 20260506004455 | 20 | 213 | 12.9 | 25.7 | 0.00 | 0.00 | 0.00 | 81 | 1017.9 |
| 20260506002955 | 20 | 246 | 14.5 | 29.0 | 0.00 | 0.00 | 0.00 | 79 | 1017.7 |
| 20260506001455 | 20 | 234 | 12.9 | 24.1 | 0.00 | 0.00 | 0.00 | 77 | 1017.5 |
| 20260505235956 | 20 | 187 | 12.9 | 25.7 | 0.00 | 0.00 | 0.00 | 76 | 1017.5 |
| 20260505234455 | 20 | 220 | 16.1 | 29.0 | 0.00 | 0.00 | 0.00 | 75 | 1017.6 |
| 20260505232957 | 21 | 211 | 16.1 | 30.6 | 0.00 | 0.00 | 0.00 | 73 | 1017.4 |
| 20260505231455 | 21 | 204 | 17.7 | 32.2 | 0.00 | 0.00 | 0.00 | 70 | 1017.3 |
| 20260505225955 | 21 | 197 | 14.5 | 33.8 | 0.00 | 0.00 | 0.00 | 71 | 1017.3 |
| 20260505224455 | 21 | 219 | 14.5 | 32.2 | 0.00 | 0.00 | 0.00 | 70 | 1017.3 |
| 20260505222957 | 22 | 234 | 17.7 | 33.8 | 0.00 | 0.00 | 0.00 | 67 | 1017.3 |
| 20260505215955 | 23 | 232 | 17.7 | 35.4 | 0.00 | 0.00 | 0.00 | 64 | 1017.3 |
| 20260505214455 | 23 | 220 | 17.7 | 37.0 | 0.00 | 0.00 | 0.00 | 63 | 1017.3 |
| 20260505212955 | 23 | 234 | 19.3 | 30.6 | 0.00 | 0.00 | 0.00 | 61 | 1017.1 |
| 20260505211455 | 23 | 170 | 17.7 | 33.8 | 0.00 | 0.00 | 0.00 | 59 | 1017.2 |
| 20260505205955 | 24 | 179 | 19.3 | 35.4 | 0.00 | 0.00 | 0.00 | 59 | 1017.4 |
| 20260505202955 | 24 | 242 | 20.9 | 38.6 | 0.00 | 0.00 | 0.00 | 59 | 1017.5 |
| 20260505201455 | 24 | 223 | 20.9 | 32.2 | 0.00 | 0.00 | 0.00 | 58 | 1017.6 |
| 20260505195955 | 24 | 188 | 19.3 | 35.4 | 0.00 | 0.00 | 0.00 | 57 | 1017.7 |
| 20260505194455 | 25 | 167 | 19.3 | 37.0 | 0.00 | 0.00 | 0.00 | 58 | 1017.7 |
| 20260505192955 | 25 | 203 | 17.7 | 40.2 | 0.00 | 0.00 | 0.00 | 62 | 1018.0 |
| 20260505191455 | 25 | 207 | 16.1 | 30.6 | 0.00 | 0.00 | 0.00 | 61 | 1018.1 |
| 20260505185955 | 25 | 236 | 14.5 | 27.4 | 0.00 | 0.00 | 0.00 | 62 | 1018.2 |
| 20260505182955 | 25 | 208 | 16.1 | 32.2 | 0.00 | 0.00 | 0.00 | 62 | 1018.4 |
| 20260505181455 | 25 | 209 | 14.5 | 27.4 | 0.00 | 0.00 | 0.00 | 60 | 1018.5 |